Idaho Falls, Idaho
Current Conditions -  °F | °C
As of 5:53 AM on Monday 22 Dec 2014 (Local Time) from KIDA Reporting Station
Overcast Overcast  
Wind Chill: 23°   Ceiling: 800
Heat Index: 33°   Visibility: 10mi
Dew Point: 30°   Wind: 16mph
Humidity: 89%   Direction: 210°SSW
Pressure: 29.92"   Gusts: NA
Location:  43.49°N, 112.04°W
Report Text: KIDA 221253Z AUTO 21014KT 10SM OVC008 01/M01 A2992 RMK AO2 SLP142 T00061011
Loading
Personal Weather Stations






























Interactive Weather Map New forecast layout! Learn more

10-Day Weather Forecast

Advertisements
Track Severe Weather on mobile